Time;durP1;ratioP1;P1;durP2;ratioP2;P2;SDS_P1;SDS_P2;PMS_P1;PMS_P2;Temp;Humidity;BMP_temperature;BMP_pressure;BME280_temperature;BME280_humidity;BME280_pressure;Samples;Min_cycle;Max_cycle;Signal;HPM_P1;HPM_P2
2021/03/20 00:01:32;;;;;;;9.33;3.42;;;;;;;-2.32;68.38;101200.53;1722170;82;25531;-77
2021/03/20 00:04:00;;;;;;;11.45;3.75;;;;;;;-2.31;68.59;101199.61;1744603;81;25384;-77
2021/03/20 00:06:33;;;;;;;11.50;4.10;;;;;;;-2.27;68.69;101204.20;1674973;81;27774;-77
2021/03/20 00:09:01;;;;;;;10.45;3.87;;;;;;;-2.26;68.49;101206.72;1734040;80;26551;-77
2021/03/20 00:11:29;;;;;;;7.97;3.17;;;;;;;-2.28;68.29;101209.05;1696300;82;25751;-77
2021/03/20 00:13:58;;;;;;;14.58;4.40;;;;;;;-2.30;67.82;101200.42;1745518;81;26390;-77
2021/03/20 00:16:28;;;;;;;10.85;4.10;;;;;;;-2.31;68.06;101204.86;1694839;81;25742;-77
2021/03/20 00:18:55;;;;;;;6.90;2.95;;;;;;;-2.31;67.94;101207.48;1701782;81;27516;-77
2021/03/20 00:21:23;;;;;;;8.70;3.67;;;;;;;-2.30;67.86;101206.52;1727687;81;25875;-77
2021/03/20 00:23:50;;;;;;;10.10;3.20;;;;;;;-2.30;67.86;101206.52;1679474;84;25831;-77
2021/03/20 00:26:17;;;;;;;10.98;3.98;;;;;;;-2.29;67.59;101212.16;1685608;84;26523;-77
2021/03/20 00:28:45;;;;;;;7.80;3.75;;;;;;;-2.29;67.80;101209.54;1692100;83;25721;-77
2021/03/20 00:31:13;;;;;;;8.40;3.22;;;;;;;-2.30;67.88;101209.61;1678857;83;27346;-77
2021/03/20 00:33:42;;;;;;;8.70;3.52;;;;;;;-2.28;67.91;101212.98;1709990;83;26457;-77
2021/03/20 00:36:12;;;;;;;7.30;2.80;;;;;;;-2.28;67.96;101209.91;1662671;84;25791;-77
2021/03/20 00:38:40;;;;;;;7.92;3.83;;;;;;;-2.29;67.48;101206.06;1669334;83;25760;-77
2021/03/20 00:41:10;;;;;;;7.22;3.75;;;;;;;-2.31;67.45;101204.86;1739932;81;25846;-77
2021/03/20 00:43:38;;;;;;;8.93;3.20;;;;;;;-2.31;67.85;101210.10;1740634;81;28446;-77
2021/03/20 00:46:08;;;;;;;10.98;3.62;;;;;;;-2.33;68.30;101198.82;1722628;81;25885;-77
2021/03/20 00:48:39;;;;;;;10.13;3.52;;;;;;;-2.33;68.30;101198.82;1722000;81;25869;-77
2021/03/20 00:51:08;;;;;;;7.72;3.37;;;;;;;-2.24;67.83;101214.48;1722630;81;25920;-77
2021/03/20 00:53:36;;;;;;;8.68;2.95;;;;;;;-2.24;67.55;101208.78;1738858;81;25736;-77
2021/03/20 00:56:04;;;;;;;7.03;3.20;;;;;;;-2.26;67.42;101218.98;1699498;81;27817;-77
2021/03/20 00:58:39;;;;;;;6.33;2.95;;;;;;;-2.26;67.40;101215.05;1705232;81;26155;-77
2021/03/20 01:01:13;;;;;;;12.95;4.20;;;;;;;-2.25;67.59;101218.06;1720126;81;25831;-77
2021/03/20 01:03:41;;;;;;;9.05;3.65;;;;;;;-2.24;67.70;101224.52;1744661;81;26418;-77
2021/03/20 01:06:12;;;;;;;7.10;2.85;;;;;;;-2.20;67.43;101218.65;1697448;81;25828;-77
2021/03/20 01:08:40;;;;;;;8.98;3.27;;;;;;;-2.22;66.96;101216.09;1720273;81;28432;-77
2021/03/20 01:11:10;;;;;;;7.75;3.52;;;;;;;-2.23;66.93;101213.56;1720039;81;25617;-77
2021/03/20 01:13:37;;;;;;;8.03;3.27;;;;;;;-2.24;67.02;101214.03;1742824;81;26025;-77
2021/03/20 01:16:05;;;;;;;8.70;3.55;;;;;;;-2.24;67.35;101217.11;1697400;81;25601;-77
2021/03/20 01:18:34;;;;;;;10.10;3.83;;;;;;;-2.23;66.64;101225.38;1702478;81;25779;-77
2021/03/20 01:21:01;;;;;;;9.30;3.92;;;;;;;-2.26;66.83;101221.15;1720888;81;28248;-77
2021/03/20 01:23:28;;;;;;;8.43;3.35;;;;;;;-2.28;66.67;101221.70;1747305;81;25830;-77
2021/03/20 01:25:56;;;;;;;10.40;3.65;;;;;;;-2.31;66.83;101219.28;1697479;81;25877;-77
2021/03/20 01:28:32;;;;;;;10.00;3.90;;;;;;;-2.32;66.64;101218.89;1726566;81;26422;-77
2021/03/20 01:31:01;;;;;;;6.70;3.15;;;;;;;-2.32;67.04;101214.95;1764188;81;25735;-77
2021/03/20 01:33:29;;;;;;;10.43;3.12;;;;;;;-2.32;67.00;101215.41;1696900;81;27795;-77
2021/03/20 01:35:56;;;;;;;8.43;4.00;;;;;;;-2.34;66.93;101211.58;1766658;81;25729;-77
2021/03/20 01:38:24;;;;;;;9.68;4.37;;;;;;;-2.34;66.93;101211.58;1716601;81;25387;-77
2021/03/20 01:41:00;;;;;;;10.00;3.80;;;;;;;-2.36;66.58;101210.37;1719583;81;25753;-77
2021/03/20 01:43:30;;;;;;;11.75;4.37;;;;;;;-2.39;66.50;101218.86;1739552;81;25896;-77
2021/03/20 01:46:28;;;;;;;12.50;4.73;;;;;;;-2.42;66.38;101225.62;1766871;81;28190;-77
2021/03/20 01:48:56;;;;;;;10.98;3.90;;;;;;;-2.43;66.81;101227.39;1718795;81;25980;-77
2021/03/20 01:51:23;;;;;;;10.70;3.77;;;;;;;-2.43;66.67;101227.39;1714822;81;25799;-77
2021/03/20 01:53:54;;;;;;;9.55;4.37;;;;;;;-2.42;66.54;101225.62;1742395;81;26485;-77
2021/03/20 01:56:30;;;;;;;9.55;3.70;;;;;;;-2.44;66.42;101230.11;1762767;81;25794;-77
2021/03/20 01:58:57;;;;;;;8.23;3.62;;;;;;;-2.48;66.49;101233.36;1741638;81;27546;-77
2021/03/20 02:01:29;;;;;;;7.83;3.52;;;;;;;-2.48;66.43;101231.23;1719366;81;26336;-77
2021/03/20 02:04:00;;;;;;;11.75;3.50;;;;;;;-2.47;66.33;101240.77;1742282;81;25727;-77
2021/03/20 02:06:28;;;;;;;11.73;3.58;;;;;;;-2.53;66.87;101227.55;1759741;80;26589;-77
2021/03/20 02:09:00;;;;;;;10.45;4.10;;;;;;;-2.53;66.87;101227.55;1697392;81;25795;-77
2021/03/20 02:11:38;;;;;;;8.35;3.87;;;;;;;-2.45;66.74;101241.52;1723335;81;27523;-77
2021/03/20 02:14:26;;;;;;;13.78;4.08;;;;;;;-2.42;66.87;101241.36;1747973;81;25905;-77
2021/03/20 02:17:18;;;;;;;10.03;3.98;;;;;;;-2.41;66.90;101243.87;1741987;81;26402;-77
2021/03/20 02:20:15;;;;;;;7.97;3.80;;;;;;;-2.40;66.62;101246.90;1740265;81;26467;-77
2021/03/20 02:23:06;;;;;;;6.22;3.33;;;;;;;-2.44;66.87;101255.85;1721548;81;25774;-77
2021/03/20 02:26:02;;;;;;;;;;;;;;;-2.45;66.78;101254.17;1703495;82;27326;-77
2021/03/20 02:29:01;;;;;;;10.43;3.17;;;;;;;-2.48;66.97;101253.03;1727964;82;25822;-77
2021/03/20 02:32:23;;;;;;;9.70;3.50;;;;;;;-2.54;66.76;101257.32;1727444;82;25958;-77
2021/03/20 02:35:15;;;;;;;9.55;3.67;;;;;;;-2.57;66.90;101266.70;1733440;82;26406;-77
2021/03/20 02:38:04;;;;;;;7.85;3.50;;;;;;;-2.61;66.71;101269.58;1701144;83;26327;-77
2021/03/20 02:40:39;;;;;;;8.48;3.72;;;;;;;-2.65;66.86;101268.88;1697269;83;27430;-77
2021/03/20 02:43:43;;;;;;;12.47;4.10;;;;;;;-2.66;66.72;101263.73;1720145;82;25827;-77
2021/03/20 02:46:15;;;;;;;13.68;3.90;;;;;;;-2.70;66.85;101270.09;1725269;82;25745;-77
2021/03/20 02:49:03;;;;;;;8.55;3.60;;;;;;;-2.72;66.81;101275.42;1701663;82;25899;-77
2021/03/20 02:51:51;;;;;;;10.00;4.12;;;;;;;-2.74;66.80;101276.44;1696276;82;26509;-77
2021/03/20 02:54:59;;;;;;;11.05;3.47;;;;;;;-2.76;66.97;101273.05;1698619;82;27705;-77
2021/03/20 02:57:43;;;;;;;11.65;4.58;;;;;;;-2.78;66.84;101274.43;1717682;82;25817;-77
2021/03/20 03:00:19;;;;;;;9.20;3.72;;;;;;;-2.80;67.01;101284.16;1692283;83;25791;-77
2021/03/20 03:02:49;;;;;;;9.63;3.95;;;;;;;-2.80;67.07;101286.78;1720602;82;25854;-76
2021/03/20 03:05:28;;;;;;;9.13;4.40;;;;;;;-2.81;66.98;101290.81;1697069;82;26060;-77
2021/03/20 03:08:15;;;;;;;8.15;3.17;;;;;;;-2.81;66.95;101290.34;1735836;82;26910;-77
2021/03/20 03:10:48;;;;;;;5.97;2.50;;;;;;;-2.84;66.99;101289.20;1725160;82;26254;-77
2021/03/20 03:13:26;;;;;;;7.97;3.75;;;;;;;-2.85;67.04;101295.39;1747316;81;25825;-77
2021/03/20 03:15:59;;;;;;;8.15;4.22;;;;;;;-2.87;67.02;101301.18;1719881;82;25805;-77
2021/03/20 03:18:40;;;;;;;12.45;3.90;;;;;;;-2.91;66.97;101301.43;1724638;82;26178;-77
2021/03/20 03:21:10;;;;;;;9.18;3.60;;;;;;;-2.94;66.97;101302.89;1723301;82;27542;-77
2021/03/20 03:23:41;;;;;;;10.48;3.50;;;;;;;-2.97;66.90;101305.21;1703379;82;25875;-77
2021/03/20 03:26:14;;;;;;;5.40;3.17;;;;;;;-3.02;66.98;101303.78;1671559;83;26378;-77
2021/03/20 03:28:49;;;;;;;9.20;3.85;;;;;;;-3.06;66.99;101307.50;1745624;81;25661;-77
2021/03/20 03:31:22;;;;;;;6.08;3.30;;;;;;;-3.11;67.06;101310.38;1759887;80;25784;-77
2021/03/20 03:34:00;;;;;;;7.85;3.60;;;;;;;-3.14;67.12;101305.28;1737418;81;28333;-77
2021/03/20 03:36:45;;;;;;;10.88;3.80;;;;;;;-3.15;67.08;101305.77;1741378;81;26092;-77
2021/03/20 03:39:36;;;;;;;10.85;4.17;;;;;;;-3.16;67.22;101309.77;1750775;80;25699;-77
2021/03/20 03:42:04;;;;;;;8.00;3.62;;;;;;;-3.20;67.14;101311.71;1750829;81;25763;-77
2021/03/20 03:44:31;;;;;;;10.28;4.15;;;;;;;-3.27;67.21;101314.72;1708747;82;25822;-77
2021/03/20 03:46:59;;;;;;;8.88;4.37;;;;;;;-3.32;67.24;101319.38;1682573;82;27613;-77
2021/03/20 03:49:26;;;;;;;9.75;4.17;;;;;;;-3.31;67.40;101329.77;1700999;82;25782;-77
2021/03/20 03:51:53;;;;;;;8.18;3.90;;;;;;;-3.29;67.44;101325.30;1731668;82;26562;-77
2021/03/20 03:54:21;;;;;;;12.10;4.65;;;;;;;-3.31;67.40;101331.08;1708235;82;26217;-77
2021/03/20 03:57:18;;;;;;;9.63;3.90;;;;;;;-3.31;67.35;101328.91;1681742;82;26052;-77
2021/03/20 04:00:18;;;;;;;6.22;3.35;;;;;;;-3.35;67.33;101330.86;1734931;82;29058;-77
2021/03/20 04:02:53;;;;;;;9.73;5.03;;;;;;;-3.41;67.29;101332.95;1705616;82;26555;-77
2021/03/20 04:05:44;;;;;;;10.58;4.33;;;;;;;-3.46;67.45;101334.95;1695339;82;26003;-77
2021/03/20 04:08:42;;;;;;;8.80;3.47;;;;;;;-3.51;67.30;101339.16;1705256;82;26442;-77
2021/03/20 04:11:30;;;;;;;9.00;3.60;;;;;;;-3.59;67.41;101333.93;1733872;82;25931;-77
2021/03/20 04:14:37;;;;;;;10.65;4.00;;;;;;;-3.67;67.54;101343.47;1703943;82;29025;-77
2021/03/20 04:17:36;;;;;;;8.90;4.08;;;;;;;-3.70;67.65;101341.00;1709007;82;26054;-77
2021/03/20 04:20:20;;;;;;;8.15;3.62;;;;;;;-3.74;67.68;101338.16;1736759;82;25789;-77
2021/03/20 04:23:00;;;;;;;10.28;4.08;;;;;;;-3.77;67.64;101340.09;1733162;82;25830;-77
2021/03/20 04:25:43;;;;;;;;;;;;;;;-3.81;67.77;101341.17;1702795;82;26079;-77
2021/03/20 04:28:36;;;;;;;7.53;3.40;;;;;;;-3.83;67.80;101345.64;1714152;82;28345;-77
2021/03/20 04:31:08;;;;;;;9.65;4.40;;;;;;;-3.89;67.81;101353.33;1701015;82;25785;-77
2021/03/20 04:33:53;;;;;;;9.70;3.60;;;;;;;-3.92;67.86;101352.19;1701866;82;25986;-77
2021/03/20 04:36:26;;;;;;;9.68;4.05;;;;;;;-3.92;67.96;101351.73;1705085;82;25963;-77
2021/03/20 04:38:54;;;;;;;10.68;5.12;;;;;;;-3.92;67.99;101358.27;1728277;82;27042;-77
2021/03/20 04:41:23;;;;;;;10.63;3.70;;;;;;;-3.92;67.85;101362.20;1657938;82;28432;-77
2021/03/20 04:43:51;;;;;;;10.43;4.85;;;;;;;-3.95;67.90;101359.72;1729299;82;26067;-77
2021/03/20 04:46:23;;;;;;;13.32;4.37;;;;;;;-3.92;67.98;101360.03;1704880;82;25807;-77
2021/03/20 04:49:27;;;;;;;9.83;4.10;;;;;;;-3.92;67.92;101365.27;1728306;82;26497;-77
2021/03/20 04:52:21;;;;;;;10.78;3.95;;;;;;;-3.93;67.91;101360.95;1704210;82;25893;-77
2021/03/20 04:54:49;;;;;;;11.78;5.17;;;;;;;-3.94;67.92;101372.35;1681852;82;27261;-77
2021/03/20 04:57:37;;;;;;;8.35;3.87;;;;;;;-3.97;67.94;101369.42;1704904;82;25742;-77
2021/03/20 05:00:12;;;;;;;11.35;4.03;;;;;;;-3.97;68.03;101367.26;1728232;82;26279;-77
2021/03/20 05:02:51;;;;;;;8.20;2.98;;;;;;;-3.97;68.01;101377.27;1705200;82;25704;-77
2021/03/20 05:05:30;;;;;;;11.20;4.90;;;;;;;-3.97;68.02;101373.80;1701826;82;25755;-77
2021/03/20 05:08:06;;;;;;;8.58;3.80;;;;;;;-4.00;68.17;101379.20;1683096;83;27332;-77
2021/03/20 05:10:55;;;;;;;5.92;3.37;;;;;;;-4.04;68.21;101382.41;1707865;83;25855;-77
2021/03/20 05:13:47;;;;;;;15.50;4.37;;;;;;;-4.01;68.30;101383.58;1707292;83;25916;-77
2021/03/20 05:16:20;;;;;;;9.88;3.55;;;;;;;-3.99;68.33;101391.34;1707236;83;26480;-77
2021/03/20 05:18:51;;;;;;;10.53;3.77;;;;;;;-3.94;68.53;101390.67;1729175;82;25731;-77
2021/03/20 05:21:25;;;;;;;10.78;3.98;;;;;;;-3.94;68.14;101396.76;1735699;82;26827;-77
2021/03/20 05:23:55;;;;;;;8.83;3.45;;;;;;;-4.02;68.19;101398.06;1712187;82;25804;-77
2021/03/20 05:26:23;;;;;;;9.18;3.17;;;;;;;-4.03;68.39;101400.27;1711977;81;25858;-76
2021/03/20 05:28:51;;;;;;;6.47;3.08;;;;;;;-4.09;68.38;101396.20;1740097;81;26491;-77
2021/03/20 05:31:18;;;;;;;6.45;3.22;;;;;;;-4.16;68.52;101400.02;1702621;81;25920;-77
2021/03/20 05:33:49;;;;;;;9.23;3.42;;;;;;;-4.18;68.62;101398.40;1712262;82;28499;-78
2021/03/20 05:36:19;;;;;;;8.38;3.72;;;;;;;-4.22;68.73;101406.87;1789323;80;25822;-77
2021/03/20 05:38:48;;;;;;;15.35;4.33;;;;;;;-4.24;68.77;101403.48;1785556;80;25700;-78
2021/03/20 05:42:11;;;;;;;16.27;3.85;;;;;;;-4.26;68.90;101412.31;1714348;80;25787;-78
2021/03/20 05:45:05;;;;;;;11.65;4.33;;;;;;;-4.29;69.02;101409.38;1758472;80;25758;-78
2021/03/20 05:48:17;;;;;;;9.65;4.22;;;;;;;-4.30;69.13;101408.16;1708827;82;28306;-78
2021/03/20 05:51:10;;;;;;;9.35;5.05;;;;;;;-4.32;69.17;101419.97;1785365;80;26314;-78
2021/03/20 05:54:15;;;;;;;9.85;4.35;;;;;;;-4.30;69.33;101416.82;1743141;80;26430;-78
2021/03/20 05:56:56;;;;;;;7.25;3.62;;;;;;;-4.24;69.47;101419.63;1763397;79;26507;-78
2021/03/20 05:59:59;;;;;;;8.23;4.58;;;;;;;-4.17;69.52;101419.73;1762102;80;25803;-78
2021/03/20 06:02:53;;;;;;;14.03;4.80;;;;;;;-4.15;69.40;101421.32;1769126;80;26990;-78
2021/03/20 06:05:31;;;;;;;20.48;6.47;;;;;;;-4.09;69.50;101420.20;1776569;79;25899;-78
2021/03/20 06:08:36;;;;;;;12.45;4.47;;;;;;;-4.03;69.43;101428.60;1762803;80;25815;-78
2021/03/20 06:11:18;;;;;;;13.18;4.53;;;;;;;-4.00;69.34;101425.81;1742611;81;25885;-79
2021/03/20 06:14:09;;;;;;;8.33;4.05;;;;;;;-3.97;69.29;101430.91;1774325;80;26131;-78
2021/03/20 06:16:54;;;;;;;11.15;4.55;;;;;;;-3.93;69.35;101427.22;1719783;81;27540;-78
2021/03/20 06:19:48;;;;;;;7.97;4.20;;;;;;;-3.94;69.44;101429.47;1761820;80;25696;-78
2021/03/20 06:22:45;;;;;;;10.40;4.42;;;;;;;-3.91;69.51;101429.75;1694906;81;25940;-78
2021/03/20 06:25:30;;;;;;;6.85;2.87;;;;;;;-3.86;69.49;101429.53;1733540;81;25764;-78
2021/03/20 06:27:57;;;;;;;12.20;3.90;;;;;;;-3.82;69.42;101429.31;1688118;84;26004;-78
2021/03/20 06:30:44;;;;;;;7.65;3.30;;;;;;;-3.75;69.37;101434.64;1648253;85;27636;-78
2021/03/20 06:33:28;;;;;;;7.70;3.67;;;;;;;-3.70;69.42;101434.41;1625969;86;25818;-78
2021/03/20 06:36:07;;;;;;;9.53;3.77;;;;;;;-3.65;68.95;101442.41;1703492;82;26043;-78
2021/03/20 06:38:39;;;;;;;11.12;3.98;;;;;;;-3.64;68.91;101446.73;1666467;84;26407;-77
2021/03/20 06:41:18;;;;;;;14.05;4.75;;;;;;;-3.63;69.30;101439.25;1720161;83;26378;-78
2021/03/20 06:43:52;;;;;;;7.92;3.58;;;;;;;-3.59;69.07;101449.95;1698206;83;32636;-78
2021/03/20 06:46:30;;;;;;;12.80;4.35;;;;;;;-3.55;69.02;101454.11;1709247;83;25721;-77
2021/03/20 06:48:58;;;;;;;7.62;3.70;;;;;;;-3.49;69.04;101450.36;1710455;83;26563;-78
2021/03/20 06:51:28;;;;;;;10.40;4.70;;;;;;;-3.41;69.03;101457.36;1684415;82;26428;-77
2021/03/20 06:54:02;;;;;;;10.23;4.62;;;;;;;-3.38;68.60;101463.28;1688363;82;26440;-77
2021/03/20 06:56:34;;;;;;;8.10;3.65;;;;;;;-3.36;68.50;101455.37;1741096;81;27528;-77
2021/03/20 06:59:11;;;;;;;7.08;3.27;;;;;;;-3.32;68.53;101456.91;1720427;83;25860;-77
2021/03/20 07:01:44;;;;;;;10.93;3.27;;;;;;;-3.29;68.13;101458.89;1742288;81;25764;-77
2021/03/20 07:04:56;;;;;;;8.58;3.75;;;;;;;-3.25;68.05;101468.77;1709189;81;25782;-77
2021/03/20 07:07:40;;;;;;;9.85;4.33;;;;;;;-3.18;68.19;101468.82;1726412;81;25821;-80
2021/03/20 07:10:37;;;;;;;11.78;3.85;;;;;;;-3.09;68.06;101460.95;1633138;83;28909;-78
2021/03/20 07:13:22;;;;;;;8.38;3.75;;;;;;;-2.99;67.67;101459.08;1686272;84;26069;-78
2021/03/20 07:16:10;;;;;;;8.90;4.95;;;;;;;-2.93;67.85;101464.48;1692087;83;25390;-78
2021/03/20 07:18:48;;;;;;;8.48;4.50;;;;;;;-2.84;67.65;101466.60;1702094;83;26609;-78
2021/03/20 07:21:35;;;;;;;7.35;3.17;;;;;;;-2.73;67.70;101469.05;1709972;83;25877;-79
2021/03/20 07:24:16;;;;;;;11.05;4.47;;;;;;;-2.58;67.79;101467.38;1666872;83;27547;-78
2021/03/20 07:26:52;;;;;;;;;;;;;;;-2.44;67.60;101471.44;1675221;83;25769;-78
2021/03/20 07:29:41;;;;;;;7.83;2.98;;;;;;;-2.30;67.83;101474.61;1683824;83;25732;-78
2021/03/20 07:32:19;;;;;;;8.68;3.45;;;;;;;-2.19;66.68;101477.03;1708006;83;26080;-77
2021/03/20 07:34:48;;;;;;;8.03;3.37;;;;;;;-2.14;65.66;101480.72;1669328;83;25861;-77
2021/03/20 07:37:26;;;;;;;10.28;4.50;;;;;;;-2.05;66.04;101483.66;1683648;83;28368;-77
2021/03/20 07:39:58;;;;;;;8.85;3.40;;;;;;;-1.96;65.35;101488.87;1682355;83;26594;-77
2021/03/20 07:42:39;;;;;;;6.62;3.20;;;;;;;-1.89;65.17;101484.98;1707215;83;26390;-77
2021/03/20 07:45:20;;;;;;;6.65;3.40;;;;;;;-1.84;64.74;101490.34;1682908;83;26472;-77
2021/03/20 07:47:59;;;;;;;8.43;3.30;;;;;;;-1.78;64.30;101489.16;1692885;83;26292;-77
2021/03/20 07:50:40;;;;;;;8.63;3.30;;;;;;;-1.73;64.44;101495.84;1694265;83;28458;-77
2021/03/20 07:53:19;;;;;;;6.78;3.37;;;;;;;-1.68;64.00;101491.18;1715034;82;25808;-78
2021/03/20 07:56:16;;;;;;;6.47;2.90;;;;;;;-1.62;63.03;101491.28;1694242;82;25927;-78
2021/03/20 07:58:50;;;;;;;7.00;3.40;;;;;;;-1.62;63.00;101490.83;1691912;84;25851;-78
2021/03/20 08:01:26;;;;;;;8.38;3.27;;;;;;;-1.57;63.49;101494.51;1690984;84;25951;-78
2021/03/20 08:04:03;;;;;;;8.30;2.98;;;;;;;-1.52;62.20;101499.04;1676201;85;28183;-78
2021/03/20 08:06:47;;;;;;;8.43;2.80;;;;;;;-1.53;61.54;101489.91;1692037;83;26110;-78
2021/03/20 08:09:23;;;;;;;7.17;2.50;;;;;;;-1.41;60.11;101504.50;1679653;83;26508;-77
2021/03/20 08:12:01;;;;;;;8.18;2.60;;;;;;;-1.41;60.63;101493.98;1696744;82;25866;-78
2021/03/20 08:14:40;;;;;;;7.30;3.37;;;;;;;-1.41;60.63;101493.98;1719589;82;25888;-78
2021/03/20 08:17:17;;;;;;;10.15;2.85;;;;;;;-1.29;60.10;101508.21;1701130;82;27553;-78
2021/03/20 08:19:45;;;;;;;6.35;2.30;;;;;;;-1.20;59.11;101512.48;1699188;82;26373;-78
2021/03/20 08:22:36;;;;;;;6.25;2.42;;;;;;;-1.17;58.44;101507.48;1702571;82;25982;-78
2021/03/20 08:25:14;;;;;;;7.90;2.98;;;;;;;-1.16;58.52;101508.73;1704158;82;25861;-78
2021/03/20 08:28:10;;;;;;;4.17;2.52;;;;;;;-1.00;59.40;101500.30;1726376;81;26179;-80
2021/03/20 08:30:43;;;;;;;6.92;3.02;;;;;;;-1.00;59.40;101500.30;1730998;81;27510;-80
2021/03/20 08:33:38;;;;;;;5.83;2.65;;;;;;;-0.79;58.46;101496.38;1733542;81;26023;-80
2021/03/20 08:36:46;;;;;;;3.98;2.17;;;;;;;-0.79;58.46;101496.38;1742886;81;25799;-81
2021/03/20 08:39:54;;;;;;;4.42;2.27;;;;;;;-0.70;57.42;101506.81;1698102;82;25838;-80
2021/03/20 08:42:48;;;;;;;7.30;2.90;;;;;;;-0.68;57.46;101510.20;1700281;81;26410;-78
2021/03/20 08:45:28;;;;;;;6.72;3.12;;;;;;;-0.64;56.86;101512.19;1761557;80;27543;-78
2021/03/20 08:48:04;;;;;;;4.40;3.22;;;;;;;-0.58;57.09;101510.03;1755657;80;26096;-78
2021/03/20 08:51:04;;;;;;;7.58;2.10;;;;;;;-0.51;55.34;101511.33;1761057;80;25807;-78
2021/03/20 08:53:52;;;;;;;2.75;1.75;;;;;;;-0.47;56.05;101508.06;1761865;80;26055;-78
2021/03/20 08:56:58;;;;;;;5.45;2.30;;;;;;;-0.44;55.56;101511.34;1726221;82;25912;-78
2021/03/20 08:59:34;;;;;;;4.75;2.27;;;;;;;-0.38;55.47;101514.05;1721895;82;27592;-78
2021/03/20 09:02:25;;;;;;;4.87;2.33;;;;;;;-0.31;55.08;101514.91;1716397;81;26515;-78
2021/03/20 09:05:14;;;;;;;7.17;2.35;;;;;;;-0.35;54.93;101517.81;1731228;81;25890;-78
2021/03/20 09:07:56;;;;;;;2.87;1.90;;;;;;;-0.39;54.20;101516.31;1689301;83;26498;-78
2021/03/20 09:10:31;;;;;;;4.03;2.10;;;;;;;-0.45;52.78;101518.02;1745898;81;26358;-78
2021/03/20 09:13:13;;;;;;;5.92;1.70;;;;;;;-0.55;52.70;101523.45;1666093;83;27367;-78
2021/03/20 09:15:45;;;;;;;4.17;1.42;;;;;;;-0.60;54.06;101522.44;1726746;82;25975;-78
2021/03/20 09:18:15;;;;;;;6.33;2.33;;;;;;;-0.59;51.89;101524.58;1732411;82;25802;-78
2021/03/20 09:20:56;;;;;;;4.15;2.05;;;;;;;-0.60;53.65;101526.38;1702456;82;26564;-78
2021/03/20 09:23:32;;;;;;;6.78;2.33;;;;;;;-0.47;53.17;101509.38;1753732;80;26099;-78
2021/03/20 09:26:07;;;;;;;3.33;1.67;;;;;;;-0.41;53.34;101524.31;1750318;80;28519;-78
2021/03/20 09:29:07;;;;;;;3.47;1.75;;;;;;;-0.40;53.04;101534.35;1705323;82;26087;-78
2021/03/20 09:31:42;;;;;;;6.67;2.02;;;;;;;-0.38;53.80;101535.95;1746201;80;25789;-79
2021/03/20 09:34:39;;;;;;;4.90;1.85;;;;;;;-0.40;53.08;101540.93;1757906;80;25739;-79
2021/03/20 09:37:21;;;;;;;4.28;2.12;;;;;;;-0.42;53.33;101536.23;1750482;80;25842;-78
2021/03/20 09:39:54;;;;;;;6.00;1.90;;;;;;;-0.39;53.03;101535.59;1770363;80;27577;-79
2021/03/20 09:42:32;;;;;;;4.40;1.62;;;;;;;-0.39;52.53;101534.74;1705410;81;25862;-78
2021/03/20 09:45:13;;;;;;;3.42;1.80;;;;;;;-0.40;52.01;101540.47;1687232;83;25528;-79
2021/03/20 09:47:51;;;;;;;6.10;1.80;;;;;;;-0.39;52.19;101546.59;1698162;82;26015;-78
2021/03/20 09:50:23;;;;;;;3.47;2.10;;;;;;;-0.38;52.31;101553.06;1732450;82;25718;-78
2021/03/20 09:52:59;;;;;;;3.80;1.80;;;;;;;-0.31;52.88;101546.95;1690199;83;28455;-79
2021/03/20 09:55:35;;;;;;;2.83;2.08;;;;;;;-0.13;52.85;101547.97;1708281;82;26464;-78
2021/03/20 09:58:20;;;;;;;3.62;1.55;;;;;;;-0.01;52.29;101547.69;1686056;83;25759;-78
2021/03/20 10:00:58;;;;;;;8.15;2.40;;;;;;;0.07;51.84;101549.82;1732852;82;25869;-78
2021/03/20 10:03:47;;;;;;;7.03;1.62;;;;;;;0.11;51.29;101552.17;1702819;81;26083;-79
2021/03/20 10:06:29;;;;;;;4.30;1.62;;;;;;;0.06;49.83;101554.73;1687446;82;27126;-78
2021/03/20 10:09:13;;;;;;;4.12;1.80;;;;;;;0.02;51.42;101549.28;1702365;82;25899;-79
2021/03/20 10:11:55;;;;;;;4.10;1.65;;;;;;;0.10;51.00;101555.77;1740692;81;26029;-79
2021/03/20 10:14:33;;;;;;;3.40;1.75;;;;;;;0.10;50.62;101558.86;1753492;81;26712;-78
2021/03/20 10:17:17;;;;;;;3.40;2.05;;;;;;;0.09;50.88;101564.59;1753260;80;26444;-78
2021/03/20 10:20:06;;;;;;;2.90;1.62;;;;;;;0.16;50.96;101552.73;1754581;80;28708;-79
2021/03/20 10:22:39;;;;;;;5.58;2.27;;;;;;;0.27;51.20;101549.42;1781842;80;26514;-79
2021/03/20 10:25:11;;;;;;;4.47;1.60;;;;;;;0.33;51.44;101552.50;1758294;80;25762;-78
2021/03/20 10:27:59;;;;;;;3.98;1.87;;;;;;;0.40;50.05;101541.95;1750005;80;25829;-78
2021/03/20 10:30:32;;;;;;;10.32;2.72;;;;;;;0.47;50.15;101547.18;1788863;79;25945;-79
2021/03/20 10:33:17;;;;;;;4.50;1.92;;;;;;;0.56;51.66;101550.55;1752905;80;26819;-78
2021/03/20 10:35:44;;;;;;;5.22;2.10;;;;;;;0.59;49.48;101549.50;1780399;79;25807;-78
2021/03/20 10:38:21;;;;;;;3.47;1.60;;;;;;;0.54;49.44;101545.84;1731629;80;25839;-78
2021/03/20 10:41:21;;;;;;;6.10;1.95;;;;;;;0.57;49.34;101551.39;1723222;80;26666;-79
2021/03/20 10:43:57;;;;;;;4.92;2.05;;;;;;;0.63;49.50;101541.77;1778335;80;25735;-79
2021/03/20 10:46:29;;;;;;;4.00;1.85;;;;;;;0.75;48.97;101536.98;1787069;79;27597;-78
2021/03/20 10:49:05;;;;;;;3.02;1.98;;;;;;;0.79;49.01;101545.09;1721604;80;26112;-79
2021/03/20 10:51:38;;;;;;;4.67;1.45;;;;;;;0.84;50.04;101543.45;1758995;80;25946;-79
2021/03/20 10:54:20;;;;;;;3.75;1.92;;;;;;;0.81;47.44;101541.03;1750528;80;26204;-79
2021/03/20 10:56:53;;;;;;;7.55;2.85;;;;;;;0.72;48.01;101539.38;1788988;79;25881;-79
2021/03/20 10:59:40;;;;;;;4.47;1.95;;;;;;;0.74;48.90;101544.55;1759404;80;27450;-79
2021/03/20 11:02:31;;;;;;;4.33;2.42;;;;;;;0.76;48.75;101549.24;1737904;80;25911;-78
2021/03/20 11:05:22;;;;;;;5.62;2.22;;;;;;;0.74;49.00;101547.19;1760791;80;25902;-78
2021/03/20 11:07:56;;;;;;;;;;;;;;;0.69;49.05;101547.48;1764439;80;25729;-78
2021/03/20 11:10:32;;;;;;;6.62;3.62;;;;;;;0.66;48.70;101540.26;1779711;80;25979;-78
2021/03/20 11:13:06;;;;;;;12.00;6.50;;;;;;;0.72;49.88;101538.06;1772945;80;27732;-78
2021/03/20 11:15:37;;;;;;;9.70;5.42;;;;;;;0.81;49.21;101538.39;1754588;80;26005;-78
2021/03/20 11:18:10;;;;;;;6.45;3.00;;;;;;;0.86;49.13;101541.08;1742514;80;26469;-78
2021/03/20 11:20:42;;;;;;;3.67;2.47;;;;;;;0.89;49.09;101534.30;1769055;80;25868;-77
2021/03/20 11:23:32;;;;;;;5.72;2.30;;;;;;;0.98;47.63;101527.56;1761769;79;25775;-77
2021/03/20 11:26:14;;;;;;;3.90;2.00;;;;;;;1.01;48.13;101527.34;1743133;80;33084;-78
2021/03/20 11:28:44;;;;;;;4.75;2.12;;;;;;;1.14;47.71;101526.88;1681333;83;25796;-78
2021/03/20 11:31:14;;;;;;;3.52;1.70;;;;;;;1.22;47.14;101520.64;1738752;81;32659;-78
2021/03/20 11:33:44;;;;;;;2.90;2.05;;;;;;;1.38;48.23;101523.44;1766738;80;25738;-78
2021/03/20 11:36:25;;;;;;;3.93;1.87;;;;;;;1.56;48.24;101521.32;1784651;80;25690;-78
2021/03/20 11:38:53;;;;;;;5.22;1.98;;;;;;;1.65;47.39;101519.33;1716589;81;27575;-78
2021/03/20 11:41:25;;;;;;;4.87;2.37;;;;;;;1.58;44.82;101508.00;1785335;80;26342;-78
2021/03/20 11:44:08;;;;;;;5.30;2.05;;;;;;;1.56;47.17;101504.16;1791528;79;26409;-79
2021/03/20 11:46:38;;;;;;;5.60;2.20;;;;;;;1.63;45.52;101505.86;1759463;80;25802;-78
2021/03/20 11:49:24;;;;;;;6.53;2.42;;;;;;;1.67;45.37;101510.83;1742063;80;25346;-78
2021/03/20 11:51:54;;;;;;;4.53;2.10;;;;;;;1.65;44.94;101510.09;1780371;79;27532;-78
2021/03/20 11:54:37;;;;;;;3.40;2.20;;;;;;;1.54;45.03;101504.71;1740833;80;26154;-78
2021/03/20 11:57:09;;;;;;;4.15;2.58;;;;;;;1.48;46.14;101504.68;1757657;80;25835;-78
2021/03/20 11:59:44;;;;;;;5.33;2.35;;;;;;;1.46;46.20;101515.82;1751457;80;26336;-78
2021/03/20 12:02:26;;;;;;;10.45;4.95;;;;;;;1.44;45.61;101508.95;1747219;81;25781;-78
2021/03/20 12:05:20;;;;;;;8.18;4.30;;;;;;;1.56;47.21;101504.16;1825246;77;25800;-78
2021/03/20 12:07:48;;;;;;;7.33;2.92;;;;;;;1.67;46.81;101506.86;1790440;79;26054;-78
2021/03/20 12:10:20;;;;;;;4.50;2.25;;;;;;;1.82;45.48;101501.83;1740869;78;27540;-78
2021/03/20 12:12:56;;;;;;;3.98;2.30;;;;;;;1.82;45.01;101497.86;1770684;79;26091;-78
2021/03/20 12:15:35;;;;;;;5.37;2.20;;;;;;;1.81;45.01;101493.55;1744163;81;25827;-78
2021/03/20 12:18:17;;;;;;;3.60;2.33;;;;;;;1.72;43.70;101482.31;1752511;81;25800;-78
2021/03/20 12:20:45;;;;;;;5.10;2.27;;;;;;;1.76;44.05;101495.66;1754690;80;25884;-78
2021/03/20 12:23:25;;;;;;;5.85;2.27;;;;;;;1.81;44.19;101492.70;1743872;80;27709;-78